createdAt,value
2018-05-09T00:01:07.821Z,100842.85
2018-05-09T00:04:11.105Z,100840.55
2018-05-09T00:07:14.495Z,100835.14
2018-05-09T00:10:17.864Z,100831.12
2018-05-09T00:13:21.116Z,100826.84
2018-05-09T00:16:24.282Z,100829.22
2018-05-09T00:19:27.491Z,100825.41
2018-05-09T00:22:30.794Z,100829.13
2018-05-09T00:25:34.175Z,100829.01
2018-05-09T00:28:37.676Z,100831.92
2018-05-09T00:31:40.980Z,100833.16
2018-05-09T00:34:44.395Z,100836.56
2018-05-09T00:37:47.791Z,100837.13
2018-05-09T00:40:52.095Z,100830.07
2018-05-09T00:43:55.604Z,100831.85
2018-05-09T00:46:59.013Z,100828.20
2018-05-09T00:50:02.347Z,100824.25
2018-05-09T00:53:06.372Z,100831.47
2018-05-09T00:56:09.781Z,100827.70
2018-05-09T00:59:14.103Z,100836.51
2018-05-09T01:02:17.443Z,100837.34
2018-05-09T01:05:20.849Z,100836.06
2018-05-09T01:08:24.265Z,100837.92
2018-05-09T01:11:27.679Z,100841.92
2018-05-09T01:14:30.872Z,100845.61
2018-05-09T01:17:34.113Z,100840.64
2018-05-09T01:20:38.969Z,100840.15
2018-05-09T01:23:42.315Z,100841.27
2018-05-09T01:26:45.723Z,100838.71
2018-05-09T01:29:49.052Z,100834.00
2018-05-09T01:32:52.368Z,100833.14
2018-05-09T01:35:55.711Z,100837.12
2018-05-09T01:39:00.142Z,100838.18
2018-05-09T01:42:03.445Z,100835.52
2018-05-09T01:45:07.587Z,100838.34
2018-05-09T01:48:10.834Z,100838.54
2018-05-09T01:51:14.158Z,100838.64
2018-05-09T01:54:17.468Z,100840.72
2018-05-09T01:57:20.908Z,100845.80
2018-05-09T02:00:24.276Z,100842.75
2018-05-09T02:03:27.704Z,100837.35
2018-05-09T02:06:32.089Z,100839.63
2018-05-09T02:09:36.495Z,100846.24
2018-05-09T02:12:39.841Z,100843.01
2018-05-09T02:15:43.289Z,100847.99
2018-05-09T02:18:46.672Z,100846.93
2018-05-09T02:21:50.099Z,100846.35
2018-05-09T02:24:53.468Z,100852.72
2018-05-09T02:27:56.840Z,100853.83
2018-05-09T02:31:01.288Z,100861.04
2018-05-09T02:34:06.462Z,100857.12
2018-05-09T02:37:10.783Z,100858.93
2018-05-09T02:40:14.360Z,100856.04
2018-05-09T02:43:18.519Z,100856.71
2018-05-09T02:46:21.926Z,100852.93
2018-05-09T02:49:25.337Z,100854.27
2018-05-09T02:52:28.715Z,100858.16
2018-05-09T02:55:32.109Z,100851.62
2018-05-09T02:58:36.123Z,100846.88
2018-05-09T03:01:39.485Z,100846.32
2018-05-09T03:04:42.743Z,100844.75
2018-05-09T03:07:45.964Z,100841.44
2018-05-09T03:10:50.397Z,100845.58
2018-05-09T03:13:53.753Z,100846.71
2018-05-09T03:16:57.161Z,100839.89
2018-05-09T03:20:01.569Z,100840.02
2018-05-09T03:23:04.964Z,100844.17
2018-05-09T03:26:08.656Z,100848.99
2018-05-09T03:29:12.001Z,100856.11
2018-05-09T03:32:15.263Z,100855.23
2018-05-09T03:35:18.660Z,100860.53
2018-05-09T03:38:22.995Z,100864.30
2018-05-09T03:41:26.592Z,100863.97
2018-05-09T03:44:29.978Z,100861.86
2018-05-09T03:47:33.485Z,100861.88
2018-05-09T03:50:37.918Z,100865.47
2018-05-09T03:53:41.422Z,100871.41
2018-05-09T03:56:44.924Z,100869.24
2018-05-09T03:59:48.228Z,100868.75
2018-05-09T04:04:09.236Z,100870.85
2018-05-09T04:08:28.735Z,100879.04
2018-05-09T04:11:32.223Z,100878.52
2018-05-09T04:14:36.132Z,100879.97
2018-05-09T04:17:39.440Z,100879.53
2018-05-09T04:20:44.924Z,100880.74
2018-05-09T04:23:48.265Z,100884.89
2018-05-09T04:26:51.656Z,100884.06
2018-05-09T04:29:55.071Z,100887.73
2018-05-09T04:32:58.439Z,100887.59
2018-05-09T04:36:01.674Z,100890.86
2018-05-09T04:39:05.282Z,100888.74
2018-05-09T04:42:08.666Z,100893.55
2018-05-09T04:45:11.991Z,100894.15
2018-05-09T04:48:15.454Z,100895.93
2018-05-09T04:51:18.824Z,100893.76
2018-05-09T04:54:22.057Z,100900.68
2018-05-09T04:57:25.321Z,100899.75
2018-05-09T05:00:28.686Z,100901.52
2018-05-09T05:03:31.995Z,100906.15
2018-05-09T05:06:37.519Z,100912.92
2018-05-09T05:09:40.830Z,100916.09
2018-05-09T05:12:44.094Z,100916.87
2018-05-09T05:15:47.455Z,100911.23
2018-05-09T05:18:50.827Z,100908.14
2018-05-09T05:21:54.888Z,100903.72
2018-05-09T05:24:58.151Z,100908.71
2018-05-09T05:28:01.623Z,100909.31
2018-05-09T05:31:04.940Z,100908.08
2018-05-09T05:34:08.386Z,100905.04
2018-05-09T05:37:11.755Z,100908.95
2018-05-09T05:40:15.036Z,100910.47
2018-05-09T05:43:19.349Z,100911.98
2018-05-09T05:46:23.652Z,100924.73
2018-05-09T05:49:27.049Z,100920.49
2018-05-09T05:52:30.289Z,100922.90
2018-05-09T05:55:33.665Z,100921.41
2018-05-09T05:58:36.912Z,100923.91
2018-05-09T06:01:40.185Z,100926.98
2018-05-09T06:04:43.569Z,100928.23
2018-05-09T06:07:46.877Z,100931.15
2018-05-09T06:10:50.280Z,100933.71
2018-05-09T06:13:54.708Z,100933.82
2018-05-09T06:16:58.028Z,100933.66
2018-05-09T06:20:01.311Z,100933.08
2018-05-09T06:23:04.727Z,100931.96
2018-05-09T06:26:08.091Z,100937.91
2018-05-09T06:29:11.449Z,100938.40
2018-05-09T06:32:14.773Z,100944.81
2018-05-09T06:35:17.986Z,100951.26
2018-05-09T06:38:22.292Z,100948.30
2018-05-09T06:41:25.917Z,100942.35
2018-05-09T06:44:29.184Z,100944.30
2018-05-09T06:47:32.452Z,100954.01
2018-05-09T06:50:35.780Z,100951.75
2018-05-09T06:53:39.091Z,100954.65
2018-05-09T06:56:42.401Z,100949.88
2018-05-09T06:59:45.813Z,100948.45
2018-05-09T07:02:49.187Z,100940.09
2018-05-09T07:05:52.531Z,100943.67
2018-05-09T07:08:56.598Z,100943.25
2018-05-09T07:11:59.844Z,100941.59
2018-05-09T07:15:03.210Z,100942.65
2018-05-09T07:18:06.591Z,100950.90
2018-05-09T07:21:09.895Z,100940.73
2018-05-09T07:24:13.203Z,100944.37
2018-05-09T07:27:16.589Z,100947.44
2018-05-09T07:30:19.933Z,100953.14
2018-05-09T07:33:23.761Z,100943.81
2018-05-09T07:36:26.909Z,100941.51
2018-05-09T07:39:30.209Z,100935.53
2018-05-09T07:42:33.480Z,100933.65
2018-05-09T07:45:36.903Z,100938.23
2018-05-09T07:48:40.127Z,100944.87
2018-05-09T07:51:43.391Z,100942.21
2018-05-09T07:54:46.798Z,100950.31
2018-05-09T07:57:50.197Z,100941.51
2018-05-09T08:00:54.491Z,100938.73
2018-05-09T08:03:57.776Z,100939.68
2018-05-09T08:07:01.009Z,100943.11
2018-05-09T08:10:04.296Z,100943.78
2018-05-09T08:13:07.650Z,100950.12
2018-05-09T08:16:10.997Z,100947.31
2018-05-09T08:19:14.156Z,100951.96
2018-05-09T08:22:17.542Z,100945.78
2018-05-09T08:25:21.253Z,100949.60
2018-05-09T08:28:25.202Z,100941.18
2018-05-09T08:31:28.597Z,100939.41
2018-05-09T08:34:31.956Z,100948.22
2018-05-09T08:37:35.216Z,100952.79
2018-05-09T08:40:38.590Z,100955.83
2018-05-09T08:43:42.063Z,100954.97
2018-05-09T08:46:45.177Z,100955.84
2018-05-09T08:49:48.607Z,100958.44
2018-05-09T08:52:51.999Z,100958.00
2018-05-09T08:55:56.171Z,100958.44
2018-05-09T08:59:00.012Z,100954.63
2018-05-09T09:02:03.261Z,100954.52
2018-05-09T09:05:06.565Z,100949.00
2018-05-09T09:08:09.900Z,100946.09
2018-05-09T09:11:13.216Z,100941.35
2018-05-09T09:14:17.519Z,100945.97
2018-05-09T09:17:20.960Z,100944.49
2018-05-09T09:20:26.278Z,100941.26
2018-05-09T09:23:29.680Z,100940.58
2018-05-09T09:26:33.063Z,100940.76
2018-05-09T09:29:36.377Z,100939.68
2018-05-09T09:32:40.628Z,100935.48
2018-05-09T09:35:44.002Z,100938.69
2018-05-09T09:38:47.179Z,100938.57
2018-05-09T09:41:51.552Z,100934.40
2018-05-09T09:44:55.616Z,100923.22
2018-05-09T09:47:58.854Z,100924.09
2018-05-09T09:51:02.105Z,100910.87
2018-05-09T09:54:05.551Z,100913.40
2018-05-09T09:57:08.868Z,100907.38
2018-05-09T10:00:12.216Z,100907.84
2018-05-09T10:03:15.597Z,100903.40
2018-05-09T10:06:18.788Z,100901.37
2018-05-09T10:09:22.055Z,100897.10
2018-05-09T10:12:26.664Z,100890.55
2018-05-09T10:15:29.998Z,100887.63
2018-05-09T10:18:33.270Z,100885.35
2018-05-09T10:21:36.512Z,100873.34
2018-05-09T10:24:39.803Z,100866.58
2018-05-09T10:27:43.228Z,100859.73
2018-05-09T10:30:46.611Z,100859.32
2018-05-09T10:33:49.922Z,100848.00
2018-05-09T10:36:53.348Z,100853.98
2018-05-09T10:39:57.949Z,100849.02
2018-05-09T10:43:01.228Z,100845.35
2018-05-09T10:46:04.662Z,100842.40
2018-05-09T10:49:08.048Z,100831.82
2018-05-09T10:52:11.760Z,100827.55
2018-05-09T10:55:15.037Z,100822.12
2018-05-09T10:58:18.365Z,100819.15
2018-05-09T11:01:21.764Z,100816.58
2018-05-09T11:04:25.297Z,100811.76
2018-05-09T11:07:28.682Z,100811.40
2018-05-09T11:10:31.985Z,100803.23
2018-05-09T11:13:35.382Z,100803.36
2018-05-09T11:16:39.831Z,100793.98
2018-05-09T11:19:43.166Z,100795.52
2018-05-09T11:22:46.618Z,100794.55
2018-05-09T11:25:50.952Z,100790.52
2018-05-09T11:28:54.280Z,100789.78
2018-05-09T11:32:03.034Z,100792.85
2018-05-09T11:35:06.442Z,100789.39
2018-05-09T11:38:09.713Z,100792.92
2018-05-09T11:41:13.013Z,100793.12
2018-05-09T11:44:16.304Z,100796.36
2018-05-09T11:47:19.796Z,100785.06
2018-05-09T11:50:23.124Z,100795.80
2018-05-09T11:53:27.260Z,100798.66
2018-05-09T11:56:30.574Z,100792.86
2018-05-09T11:59:34.911Z,100788.78
2018-05-09T12:02:38.557Z,100786.98
2018-05-09T12:05:41.832Z,100779.09
2018-05-09T12:08:45.117Z,100777.34
2018-05-09T12:11:48.511Z,100774.58
2018-05-09T12:14:51.716Z,100779.04
2018-05-09T12:17:55.819Z,100774.69
2018-05-09T12:20:59.047Z,100765.10
2018-05-09T12:24:02.341Z,100760.73
2018-05-09T12:27:05.597Z,100756.59
2018-05-09T12:30:08.853Z,100758.92
2018-05-09T12:33:12.300Z,100756.14
2018-05-09T12:36:15.667Z,100744.28
2018-05-09T12:39:21.179Z,100742.97
2018-05-09T12:42:24.527Z,100741.74
2018-05-09T12:45:28.548Z,100735.25
2018-05-09T12:48:31.999Z,100727.90
2018-05-09T12:51:35.264Z,100731.81
2018-05-09T12:54:38.634Z,100727.66
2018-05-09T12:57:42.692Z,100733.11
2018-05-09T13:00:46.097Z,100720.10
2018-05-09T13:03:49.426Z,100720.52
2018-05-09T13:06:52.699Z,100724.60
2018-05-09T13:09:56.702Z,100711.88
2018-05-09T13:13:00.043Z,100710.17
2018-05-09T13:16:03.432Z,100706.41
2018-05-09T13:19:06.827Z,100707.79
2018-05-09T13:22:10.225Z,100701.50
2018-05-09T13:25:13.719Z,100703.28
2018-05-09T13:28:17.111Z,100692.75
2018-05-09T13:31:20.504Z,100692.47
2018-05-09T13:34:23.876Z,100675.85
2018-05-09T13:37:28.017Z,100682.97
2018-05-09T13:40:31.369Z,100669.71
2018-05-09T13:43:34.771Z,100669.19
2018-05-09T13:46:38.123Z,100663.31
2018-05-09T13:49:41.644Z,100652.96
2018-05-09T13:52:44.955Z,100657.92
2018-05-09T13:55:48.206Z,100652.09
2018-05-09T13:58:51.636Z,100653.05
2018-05-09T14:01:54.960Z,100640.85
2018-05-09T14:04:58.368Z,100641.66
2018-05-09T14:08:01.681Z,100640.25
2018-05-09T14:11:05.032Z,100645.29
2018-05-09T14:14:08.356Z,100638.56
2018-05-09T14:17:11.688Z,100631.56
2018-05-09T14:20:15.031Z,100635.79
2018-05-09T14:23:18.334Z,100628.73
2018-05-09T14:26:21.786Z,100626.61
2018-05-09T14:29:25.108Z,100626.31
2018-05-09T14:32:29.523Z,100627.97
2018-05-09T14:35:32.898Z,100624.50
2018-05-09T14:38:36.231Z,100619.89
2018-05-09T14:41:39.423Z,100622.15
2018-05-09T14:44:42.665Z,100618.90
2018-05-09T14:47:46.067Z,100616.23
2018-05-09T14:50:49.445Z,100610.63
2018-05-09T14:53:52.842Z,100609.59
2018-05-09T14:56:57.266Z,100609.88
2018-05-09T15:00:00.592Z,100602.57
2018-05-09T15:03:03.976Z,100607.99
2018-05-09T15:06:07.353Z,100606.84
2018-05-09T15:09:10.789Z,100600.46
2018-05-09T15:12:14.096Z,100590.38
2018-05-09T15:15:17.431Z,100589.40
2018-05-09T15:18:20.955Z,100577.01
2018-05-09T15:21:25.360Z,100585.66
2018-05-09T15:24:29.551Z,100591.51
2018-05-09T15:27:32.835Z,100588.95
2018-05-09T15:30:36.013Z,100592.60
2018-05-09T15:33:39.350Z,100586.09
2018-05-09T15:36:42.631Z,100582.78
2018-05-09T15:39:45.966Z,100578.65
2018-05-09T15:42:49.284Z,100576.24
2018-05-09T15:45:52.699Z,100583.41
2018-05-09T15:48:55.947Z,100589.13
2018-05-09T15:52:00.747Z,100582.75
2018-05-09T15:55:03.957Z,100581.68
2018-05-09T15:58:07.333Z,100571.48
2018-05-09T16:01:10.679Z,100582.31
2018-05-09T16:04:13.997Z,100580.16
2018-05-09T16:07:17.432Z,100580.37
2018-05-09T16:10:20.950Z,100576.78
2018-05-09T16:13:24.316Z,100577.06
2018-05-09T16:16:28.365Z,100570.45
2018-05-09T16:19:31.699Z,100574.71
2018-05-09T16:22:35.033Z,100572.15
2018-05-09T16:25:38.296Z,100571.54
2018-05-09T16:28:41.619Z,100566.96
2018-05-09T16:31:45.034Z,100567.28
2018-05-09T16:34:48.364Z,100564.81
2018-05-09T16:37:51.703Z,100565.49
2018-05-09T16:40:55.101Z,100568.72
2018-05-09T16:43:59.885Z,100575.77
2018-05-09T16:47:03.243Z,100574.63
2018-05-09T16:50:06.605Z,100573.16
2018-05-09T16:53:10.011Z,100573.58
2018-05-09T16:56:13.203Z,100572.88
2018-05-09T16:59:16.511Z,100572.50
2018-05-09T17:02:19.898Z,100576.51
2018-05-09T17:05:23.151Z,100574.18
2018-05-09T17:08:27.084Z,100572.48
2018-05-09T17:11:30.440Z,100573.94
2018-05-09T17:14:33.805Z,100572.70
2018-05-09T17:17:36.983Z,100567.95
2018-05-09T17:20:40.439Z,100566.78
2018-05-09T17:23:43.836Z,100569.58
2018-05-09T17:26:47.108Z,100564.42
2018-05-09T17:29:50.502Z,100565.63
2018-05-09T17:32:53.847Z,100565.63
2018-05-09T17:35:57.681Z,100564.26
2018-05-09T17:39:01.039Z,100564.58
2018-05-09T17:42:05.075Z,100570.75
2018-05-09T17:45:09.456Z,100569.08
2018-05-09T17:48:13.755Z,100570.49
2018-05-09T17:51:17.182Z,100572.01
2018-05-09T17:54:20.382Z,100564.88
2018-05-09T17:57:23.797Z,100568.52
2018-05-09T18:00:27.647Z,100560.71
2018-05-09T18:03:30.908Z,100563.64
2018-05-09T18:06:34.177Z,100565.63
2018-05-09T18:09:37.547Z,100559.90
2018-05-09T18:12:41.044Z,100558.35
2018-05-09T18:15:44.376Z,100563.07
2018-05-09T18:18:47.806Z,100561.40
2018-05-09T18:21:51.047Z,100561.87
2018-05-09T18:24:54.375Z,100566.91
2018-05-09T18:27:58.736Z,100570.92
2018-05-09T18:31:02.112Z,100578.40
2018-05-09T18:34:06.529Z,100580.06
2018-05-09T18:37:09.983Z,100575.35
2018-05-09T18:40:13.372Z,100577.72
2018-05-09T18:43:17.709Z,100573.34
2018-05-09T18:46:21.082Z,100569.77
2018-05-09T18:49:24.352Z,100573.63
2018-05-09T18:52:28.686Z,100587.08
2018-05-09T18:55:32.120Z,100584.61
2018-05-09T18:58:35.279Z,100589.99
2018-05-09T19:01:38.588Z,100598.11
2018-05-09T19:04:41.964Z,100596.60
2018-05-09T19:07:45.362Z,100597.19
2018-05-09T19:10:48.683Z,100597.48
2018-05-09T19:13:51.958Z,100597.06
2018-05-09T19:16:56.944Z,100596.55
2018-05-09T19:20:00.364Z,100602.23
2018-05-09T19:23:03.906Z,100602.14
2018-05-09T19:26:10.095Z,100607.88
2018-05-09T19:29:13.396Z,100603.47
2018-05-09T19:32:16.969Z,100605.79
2018-05-09T19:35:20.312Z,100612.94
2018-05-09T19:38:23.735Z,100618.95
2018-05-09T19:41:26.999Z,100626.07
2018-05-09T19:44:31.689Z,100627.69
2018-05-09T19:47:35.072Z,100631.82
2018-05-09T19:50:38.393Z,100637.54
2018-05-09T19:53:41.774Z,100644.71
2018-05-09T19:56:46.132Z,100642.69
2018-05-09T19:59:49.328Z,100649.04
2018-05-09T20:02:53.293Z,100645.30
2018-05-09T20:05:56.876Z,100639.25
2018-05-09T20:09:01.385Z,100634.72
2018-05-09T20:12:05.678Z,100638.56
2018-05-09T20:15:09.280Z,100636.36
2018-05-09T20:18:12.544Z,100640.55
2018-05-09T20:21:15.922Z,100636.47
2018-05-09T20:24:19.433Z,100639.44
2018-05-09T20:27:22.932Z,100640.37
2018-05-09T20:30:30.260Z,100641.76
2018-05-09T20:33:33.557Z,100645.50
2018-05-09T20:36:36.756Z,100642.93
2018-05-09T20:39:40.164Z,100641.92
2018-05-09T20:42:43.561Z,100641.23
2018-05-09T20:45:46.945Z,100641.83
2018-05-09T20:48:51.007Z,100638.97
2018-05-09T20:51:54.399Z,100640.17
2018-05-09T20:54:57.814Z,100639.53
2018-05-09T20:58:01.163Z,100648.13
2018-05-09T21:01:14.499Z,100651.29
2018-05-09T21:04:17.900Z,100651.88
2018-05-09T21:07:21.917Z,100646.41
2018-05-09T21:10:25.294Z,100654.85
2018-05-09T21:13:28.516Z,100656.45
2018-05-09T21:16:31.961Z,100655.93
2018-05-09T21:19:35.384Z,100653.12
2018-05-09T21:22:38.734Z,100655.09
2018-05-09T21:25:42.091Z,100652.33
2018-05-09T21:28:45.411Z,100654.57
2018-05-09T21:31:49.410Z,100662.56
2018-05-09T21:34:52.828Z,100665.59
2018-05-09T21:37:56.210Z,100666.23
2018-05-09T21:41:02.000Z,100672.63
2018-05-09T21:44:05.411Z,100667.70
2018-05-09T21:47:08.930Z,100673.08
2018-05-09T21:50:12.330Z,100675.41
2018-05-09T21:53:15.664Z,100673.09
2018-05-09T21:56:19.442Z,100678.39
2018-05-09T21:59:22.581Z,100673.37
2018-05-09T22:02:25.988Z,100673.82
2018-05-09T22:05:29.369Z,100675.73
2018-05-09T22:08:32.723Z,100672.63
2018-05-09T22:11:36.123Z,100676.00
2018-05-09T22:14:39.497Z,100678.89
2018-05-09T22:17:42.871Z,100676.93
2018-05-09T22:20:46.062Z,100678.19
2018-05-09T22:23:50.348Z,100684.30
2018-05-09T22:26:53.748Z,100682.21
2018-05-09T22:29:57.074Z,100679.69
2018-05-09T22:33:00.472Z,100684.03
2018-05-09T22:36:03.784Z,100690.24
2018-05-09T22:39:07.170Z,100691.93
2018-05-09T22:42:10.511Z,100690.21
2018-05-09T22:45:13.771Z,100689.54
2018-05-09T22:48:16.972Z,100684.87
2018-05-09T22:51:21.230Z,100676.80
2018-05-09T22:54:24.524Z,100676.74
2018-05-09T22:57:27.883Z,100675.14
2018-05-09T23:00:31.124Z,100678.35
2018-05-09T23:03:34.467Z,100670.90
2018-05-09T23:06:38.743Z,100664.88
2018-05-09T23:09:42.058Z,100663.58
2018-05-09T23:12:46.341Z,100662.46
2018-05-09T23:15:50.527Z,100657.60
2018-05-09T23:18:53.822Z,100649.75
2018-05-09T23:21:57.136Z,100646.42
2018-05-09T23:25:00.380Z,100640.65
2018-05-09T23:28:03.655Z,100640.99
2018-05-09T23:31:07.027Z,100643.56
2018-05-09T23:34:10.434Z,100643.78
2018-05-09T23:37:14.728Z,100642.67
2018-05-09T23:40:18.145Z,100645.02
2018-05-09T23:43:22.796Z,100650.05
2018-05-09T23:46:26.208Z,100648.93
2018-05-09T23:49:29.531Z,100645.79
2018-05-09T23:52:33.836Z,100643.22
2018-05-09T23:55:37.277Z,100643.16
2018-05-09T23:58:40.419Z,100641.62
